Time;durP1;ratioP1;P1;durP2;ratioP2;P2;SDS_P1;SDS_P2;PMS_P1;PMS_P2;Temp;Humidity;BMP_temperature;BMP_pressure;BME280_temperature;BME280_humidity;BME280_pressure;Samples;Min_cycle;Max_cycle;Signal;HPM_P1;HPM_P2
2021/11/23 00:02:26;;;;;;;10.32;7.25;;;;;;;-2.01;100.00;99516.38;10442321;28;20053;-61
2021/11/23 00:07:29;;;;;;;12.68;8.07;;;;;;;-2.06;100.00;99505.16;10456452;28;20079;-59
2021/11/23 00:12:33;;;;;;;10.65;8.38;;;;;;;-2.10;100.00;99514.94;10446298;28;21203;-61
2021/11/23 00:17:37;;;;;;;12.68;8.38;;;;;;;-2.12;100.00;99515.91;10461969;28;20060;-60
2021/11/23 00:22:40;;;;;;;14.35;8.95;;;;;;;-2.18;100.00;99507.31;10459308;28;20548;-59
2021/11/23 00:27:43;;;;;;;12.73;8.38;;;;;;;-2.21;100.00;99501.25;10459453;28;20037;-60
2021/11/23 00:32:49;;;;;;;14.57;9.52;;;;;;;-2.25;100.00;99494.38;10456602;28;20040;-61
2021/11/23 00:37:52;;;;;;;17.05;10.50;;;;;;;-2.34;100.00;99496.38;10455679;28;20540;-61
2021/11/23 00:42:57;;;;;;;17.13;11.52;;;;;;;-2.38;100.00;99494.78;10454397;28;20045;-64
2021/11/23 00:48:02;;;;;;;18.05;11.60;;;;;;;-2.41;100.00;99494.88;10437447;28;20131;-59
2021/11/23 00:53:06;;;;;;;15.98;10.88;;;;;;;-2.43;100.00;99495.88;10470815;28;20037;-63
2021/11/23 00:58:09;;;;;;;13.02;9.52;;;;;;;-2.46;100.00;99496.81;10455964;28;20071;-63
2021/11/23 01:03:14;;;;;;;13.70;9.02;;;;;;;-2.48;100.00;99485.47;10474199;28;20049;-61
2021/11/23 01:08:18;;;;;;;14.00;8.75;;;;;;;-2.51;100.00;99486.41;10473504;28;20037;-62
2021/11/23 01:13:22;;;;;;;11.45;8.57;;;;;;;-2.52;100.00;99492.59;10480528;28;20047;-63
2021/11/23 01:18:27;;;;;;;14.57;9.80;;;;;;;-2.54;100.00;99478.63;10459785;28;20143;-63
2021/11/23 01:23:31;;;;;;;14.95;9.80;;;;;;;-2.55;100.00;99473.38;10476773;28;20052;-64
2021/11/23 01:28:34;;;;;;;13.95;10.45;;;;;;;-2.58;100.00;99471.72;10450515;28;20413;-63
2021/11/23 01:33:38;;;;;;;16.88;10.88;;;;;;;-2.60;100.00;99468.28;10454833;28;20051;-62
2021/11/23 01:38:41;;;;;;;15.85;11.45;;;;;;;-2.61;100.00;99471.81;10469322;28;20478;-58
2021/11/23 01:43:44;;;;;;;15.10;9.05;;;;;;;-2.63;100.00;99476.28;10464402;28;20120;-61
2021/11/23 01:48:49;;;;;;;16.23;10.20;;;;;;;-2.65;100.00;99480.78;10445721;28;20044;-61
2021/11/23 01:53:52;;;;;;;14.40;9.40;;;;;;;-2.64;100.00;99487.75;10460531;28;20053;-60
2021/11/23 01:58:56;;;;;;;12.90;8.57;;;;;;;-2.65;100.00;99497.44;10448512;28;20052;-63
2021/11/23 02:04:00;;;;;;;13.88;9.38;;;;;;;-2.70;100.00;99491.44;10461580;28;20055;-59
2021/11/23 02:09:04;;;;;;;15.55;9.73;;;;;;;-2.71;100.00;99487.13;10461151;28;20052;-63
2021/11/23 02:14:08;;;;;;;13.43;10.32;;;;;;;-2.71;100.00;99502.06;10458692;28;20040;-64
2021/11/23 02:19:12;;;;;;;14.73;9.52;;;;;;;-2.71;100.00;99499.44;10453515;28;20048;-60
2021/11/23 02:24:16;;;;;;;12.65;9.27;;;;;;;-2.72;100.00;99489.78;10444144;28;20076;-58
2021/11/23 02:29:21;;;;;;;15.45;10.18;;;;;;;-2.72;100.00;99502.97;10442970;28;20077;-62
2021/11/23 02:34:49;;;;;;;16.00;9.52;;;;;;;-2.72;100.00;99488.03;10466008;28;20507;-63
2021/11/23 02:39:53;;;;;;;14.90;9.02;;;;;;;-2.71;100.00;99480.97;10458140;28;20140;-62
2021/11/23 02:44:57;;;;;;;16.60;11.82;;;;;;;-2.71;100.00;99475.69;10455052;28;20068;-60
2021/11/23 02:50:01;;;;;;;18.92;13.20;;;;;;;-2.73;100.00;99472.22;10448444;28;20509;-60
2021/11/23 02:55:07;;;;;;;19.88;12.23;;;;;;;-2.75;100.00;99460.88;10468850;28;20127;-63
2021/11/23 03:00:16;;;;;;;17.45;10.98;;;;;;;-2.76;100.00;99462.66;10464371;28;20489;-63
2021/11/23 03:05:20;;;;;;;14.63;10.50;;;;;;;-2.76;100.00;99461.81;10474770;28;20040;-63
2021/11/23 03:10:29;;;;;;;15.65;9.35;;;;;;;-2.74;100.00;99454.69;10513547;28;20059;-61
2021/11/23 03:15:32;;;;;;;12.43;9.35;;;;;;;-2.72;100.00;99460.78;10514247;28;20041;-62
2021/11/23 03:20:36;;;;;;;17.85;10.52;;;;;;;-2.69;100.00;99458.03;10468178;28;20143;-62
2021/11/23 03:25:41;;;;;;;14.77;9.98;;;;;;;-2.62;100.00;99475.38;10469703;28;20056;-61
2021/11/23 03:30:44;;;;;;;14.98;10.40;;;;;;;-2.57;100.00;99468.19;10470440;28;20044;-64
2021/11/23 03:35:50;;;;;;;15.52;10.45;;;;;;;-2.50;100.00;99474.94;10464911;28;20116;-60
2021/11/23 03:40:55;;;;;;;15.95;10.35;;;;;;;-2.42;100.00;99466.78;10468390;28;20051;-61
2021/11/23 03:45:59;;;;;;;16.13;11.10;;;;;;;-2.38;100.00;99468.41;10473077;28;20132;-61
2021/11/23 03:51:02;;;;;;;14.90;10.32;;;;;;;-2.34;100.00;99474.44;10468631;28;20484;-60
2021/11/23 03:56:07;;;;;;;14.73;9.95;;;;;;;-2.33;100.00;99470.88;10452732;28;20098;-62
2021/11/23 04:01:11;;;;;;;16.88;11.18;;;;;;;-2.31;100.00;99471.69;10474029;28;20051;-61
2021/11/23 04:06:14;;;;;;;19.67;11.15;;;;;;;-2.31;100.00;99479.59;10465877;28;20408;-60
2021/11/23 04:11:19;;;;;;;16.55;10.23;;;;;;;-2.33;100.00;99470.88;10467494;28;20053;-60
2021/11/23 04:16:23;;;;;;;15.88;10.95;;;;;;;-2.34;100.00;99469.16;10461356;28;20083;-62
2021/11/23 04:21:27;;;;;;;16.02;11.30;;;;;;;-2.36;100.00;99470.97;10449398;28;20159;-59
2021/11/23 04:26:57;;;;;;;17.48;11.05;;;;;;;-2.40;100.00;99451.75;10466217;28;20060;-56
2021/11/23 04:32:00;;;;;;;17.98;11.18;;;;;;;-2.39;100.00;99461.41;10459692;28;20342;-59
2021/11/23 04:37:05;;;;;;;16.85;11.05;;;;;;;-2.41;100.00;99462.38;10463635;28;20052;-66
2021/11/23 04:42:09;;;;;;;18.33;12.05;;;;;;;-2.48;100.00;99446.75;10467907;28;20110;-60
2021/11/23 04:47:13;;;;;;;21.13;12.00;;;;;;;-2.48;100.00;99438.81;10463618;28;20414;-61
2021/11/23 04:52:16;;;;;;;19.95;11.07;;;;;;;-2.46;100.00;99448.47;10437710;28;20076;-62
2021/11/23 04:57:22;;;;;;;20.17;11.43;;;;;;;-2.48;100.00;99459.09;10464227;28;20460;-60
2021/11/23 05:02:26;;;;;;;19.98;11.40;;;;;;;-2.50;100.00;99448.56;10456337;28;20123;-61
2021/11/23 05:07:29;;;;;;;16.92;11.32;;;;;;;-2.51;100.00;99453.91;10450559;28;20056;-65
2021/11/23 05:12:33;;;;;;;18.92;12.63;;;;;;;-2.53;100.00;99453.94;10444675;28;20159;-60
2021/11/23 05:17:38;;;;;;;21.60;12.98;;;;;;;-2.50;100.00;99450.34;10451282;28;20554;-57
2021/11/23 05:22:42;;;;;;;28.02;16.35;;;;;;;-2.50;100.00;99440.66;10482220;28;20060;-56
2021/11/23 05:27:50;;;;;;;27.83;16.77;;;;;;;-2.50;100.00;99450.34;10459743;28;20075;-57
2021/11/23 05:32:54;;;;;;;24.77;15.70;;;;;;;-2.49;100.00;99450.28;10475143;28;20056;-56
2021/11/23 05:38:47;;;;;;;25.75;15.23;;;;;;;-2.47;100.00;99447.63;10471631;28;20576;-57
2021/11/23 05:43:52;;;;;;;22.45;13.82;;;;;;;-2.44;100.00;99451.91;10466468;28;20453;-54
2021/11/23 05:48:56;;;;;;;21.80;13.25;;;;;;;-2.45;100.00;99445.75;10464386;28;20045;-58
2021/11/23 05:53:59;;;;;;;24.08;13.90;;;;;;;-2.43;100.00;99453.66;10466953;28;20131;-66
2021/11/23 05:59:04;;;;;;;25.73;13.23;;;;;;;-2.42;100.00;99450.09;10461138;28;20489;-59
2021/11/23 06:04:07;;;;;;;21.40;12.82;;;;;;;-2.44;100.00;99463.31;10450643;28;20056;-55
2021/11/23 06:09:11;;;;;;;20.58;13.13;;;;;;;-2.44;100.00;99458.03;10449357;28;20067;-55
2021/11/23 06:14:16;;;;;;;20.83;12.48;;;;;;;-2.46;100.00;99449.31;10464854;28;20450;-54
2021/11/23 06:19:20;;;;;;;22.90;13.23;;;;;;;-2.46;100.00;99459.88;10444909;28;20498;-65
2021/11/23 06:24:24;;;;;;;19.35;12.73;;;;;;;-2.46;100.00;99454.59;10459675;28;20135;-54
2021/11/23 06:29:29;;;;;;;21.27;13.40;;;;;;;-2.42;100.00;99455.38;10463433;28;20104;-54
2021/11/23 06:34:33;;;;;;;21.27;11.98;;;;;;;-2.39;100.00;99457.88;10452926;28;20131;-54
2021/11/23 06:39:36;;;;;;;21.98;11.93;;;;;;;-2.37;100.00;99458.69;10465673;28;20063;-60
2021/11/23 06:44:40;;;;;;;19.55;11.85;;;;;;;-2.35;100.00;99464.78;10466265;28;20040;-55
2021/11/23 06:49:43;;;;;;;18.38;11.60;;;;;;;-2.33;100.00;99468.25;10461705;28;20128;-59
2021/11/23 06:54:47;;;;;;;17.23;11.60;;;;;;;-2.27;100.00;99464.53;10449298;28;21578;-57
2021/11/23 06:59:51;;;;;;;18.20;11.50;;;;;;;-2.23;100.00;99468.75;10455104;28;20073;-55
2021/11/23 07:04:54;;;;;;;16.40;10.60;;;;;;;-2.21;100.00;99490.69;10459103;28;20572;-58
2021/11/23 07:09:58;;;;;;;18.08;11.25;;;;;;;-2.16;100.00;99496.69;10459312;28;20048;-54
2021/11/23 07:15:02;;;;;;;19.02;10.85;;;;;;;-2.10;100.00;99499.09;10455388;28;20128;-58
2021/11/23 07:20:07;;;;;;;19.42;11.25;;;;;;;-2.01;100.00;99497.91;10463377;28;20144;-56
2021/11/23 07:25:10;;;;;;;17.13;11.02;;;;;;;-1.93;100.00;99511.69;10488962;28;20533;-53
2021/11/23 07:30:16;;;;;;;19.35;11.10;;;;;;;-1.82;100.00;99506.03;10481085;28;20035;-62
2021/11/23 07:35:20;;;;;;;17.67;11.02;;;;;;;-1.71;100.00;99500.34;10476941;28;20072;-57
2021/11/23 07:40:23;;;;;;;20.48;11.05;;;;;;;-1.60;100.00;99508.75;10470576;28;20060;-54
2021/11/23 07:45:29;;;;;;;20.95;10.45;;;;;;;-1.52;100.00;99507.59;10468667;28;20124;-59
2021/11/23 07:50:33;;;;;;;15.88;9.40;;;;;;;-1.51;100.00;99506.66;10460121;28;20048;-62
2021/11/23 07:55:36;;;;;;;16.13;9.15;;;;;;;-1.48;100.00;99517.97;10470661;28;20048;-58
2021/11/23 08:01:08;;;;;;;13.38;8.32;;;;;;;-1.46;100.00;99509.97;10455562;28;20099;-59
2021/11/23 08:06:12;;;;;;;16.13;10.05;;;;;;;-1.39;100.00;99506.19;10470684;28;20574;-58
2021/11/23 08:11:15;;;;;;;14.70;9.00;;;;;;;-1.31;100.00;99514.69;10466258;28;20604;-56
2021/11/23 08:16:19;;;;;;;12.25;7.57;;;;;;;-1.25;100.00;99524.16;10452110;28;20087;-60
2021/11/23 08:21:23;;;;;;;11.30;7.00;;;;;;;-1.16;100.00;99529.09;10453762;28;20045;-62
2021/11/23 08:26:26;;;;;;;12.65;7.43;;;;;;;-1.04;100.00;99537.47;10468982;28;20466;-56
2021/11/23 08:31:31;;;;;;;11.27;6.90;;;;;;;-0.94;100.00;99529.13;10469047;28;20045;-61
2021/11/23 08:36:35;;;;;;;11.50;6.78;;;;;;;-0.84;100.00;99531.41;10464254;28;20119;-62
2021/11/23 08:41:38;;;;;;;9.88;7.05;;;;;;;-0.73;100.00;99530.97;10469500;28;20053;-59
2021/11/23 08:47:07;;;;;;;12.60;7.13;;;;;;;-0.63;100.00;99533.16;10480088;28;20123;-56
2021/11/23 08:52:11;;;;;;;11.82;7.28;;;;;;;-0.55;100.00;99539.94;10451310;28;20048;-56
2021/11/23 08:57:19;;;;;;;12.73;7.70;;;;;;;-0.42;100.00;99537.63;10465867;28;20125;-56
2021/11/23 09:02:24;;;;;;;14.90;7.05;;;;;;;-0.28;100.00;99529.97;10471493;28;20124;-61
2021/11/23 09:07:28;;;;;;;12.18;7.10;;;;;;;-0.23;100.00;99525.31;10467175;28;20049;-57
2021/11/23 09:12:32;;;;;;;10.55;7.18;;;;;;;-0.16;100.00;99531.22;10464092;28;20040;-59
2021/11/23 09:17:37;;;;;;;13.55;7.22;;;;;;;-0.07;100.00;99536.16;10461785;28;20462;-64
2021/11/23 09:22:41;;;;;;;13.73;8.57;;;;;;;0.08;100.00;99534.63;10464357;28;20041;-58
2021/11/23 09:27:44;;;;;;;13.50;8.55;;;;;;;0.25;100.00;99546.25;10458419;28;20075;-58
2021/11/23 09:32:50;;;;;;;12.52;6.65;;;;;;;0.36;100.00;99536.03;10474109;28;20043;-57
2021/11/23 09:37:56;;;;;;;15.68;6.70;;;;;;;0.51;100.00;99541.56;10470802;28;20098;-59
2021/11/23 09:42:59;;;;;;;10.90;6.43;;;;;;;0.63;100.00;99546.31;10472899;28;20078;-58
2021/11/23 09:48:09;;;;;;;10.82;6.68;;;;;;;0.77;100.00;99540.38;10465219;28;20099;-62
2021/11/23 09:53:15;;;;;;;10.20;6.13;;;;;;;0.89;100.00;99533.63;10544008;23;20025;-54
2021/11/23 09:58:18;;;;;;;11.98;6.45;;;;;;;1.04;100.00;99537.34;10429774;28;20037;-51
2021/11/23 10:03:29;;;;;;;11.32;7.05;;;;;;;1.19;100.00;99523.34;10414499;28;20132;-53
2021/11/23 10:08:33;;;;;;;14.50;6.78;;;;;;;1.29;100.00;99522.91;10427322;28;20042;-54
2021/11/23 10:13:43;;;;;;;9.90;5.85;;;;;;;1.32;100.00;99523.59;10404007;28;20377;-56
2021/11/23 10:18:49;;;;;;;12.77;7.07;;;;;;;1.36;100.00;99529.59;10415079;28;20045;-57
2021/11/23 10:23:55;;;;;;;18.33;9.00;;;;;;;1.41;100.00;99526.75;10422751;28;20048;-55
2021/11/23 10:29:00;;;;;;;24.63;11.50;;;;;;;1.48;100.00;99520.19;10420672;28;20042;-58
2021/11/23 10:34:10;;;;;;;20.85;11.68;;;;;;;1.50;100.00;99519.16;10426359;28;20120;-52
2021/11/23 10:39:17;;;;;;;33.50;17.80;;;;;;;1.57;100.00;99510.91;10422425;28;20128;-53
2021/11/23 10:44:22;;;;;;;37.45;20.05;;;;;;;1.62;100.00;99511.53;10430361;28;20068;-52
2021/11/23 10:49:32;;;;;;;20.52;11.60;;;;;;;1.67;100.00;99502.38;10423429;28;20045;-55
2021/11/23 10:54:35;;;;;;;18.38;11.82;;;;;;;1.72;100.00;99495.97;10420719;28;20094;-54
2021/11/23 10:59:39;;;;;;;15.43;10.18;;;;;;;1.74;100.00;99494.97;10419723;28;20456;-56
2021/11/23 11:04:45;;;;;;;16.30;8.57;;;;;;;1.77;100.00;99489.50;10409330;28;20521;-54
2021/11/23 11:09:49;;;;;;;14.15;7.20;;;;;;;1.89;100.00;99501.28;10416633;28;20049;-50
2021/11/23 11:14:55;;;;;;;16.20;7.60;;;;;;;2.02;100.00;99495.31;10414949;28;20108;-51
2021/11/23 11:19:59;;;;;;;13.65;6.97;;;;;;;2.10;100.00;99482.50;10420896;28;20120;-54
2021/11/23 11:25:13;;;;;;;14.13;7.03;;;;;;;2.21;100.00;99481.91;10418167;28;20053;-55
2021/11/23 11:30:21;;;;;;;14.90;6.88;;;;;;;2.31;100.00;99480.47;10403605;28;20744;-52
2021/11/23 11:35:27;;;;;;;12.73;7.15;;;;;;;2.42;100.00;99493.22;10417147;28;20037;-52
2021/11/23 11:40:33;;;;;;;14.52;7.20;;;;;;;2.52;100.00;99482.94;10416000;28;20111;-53
2021/11/23 11:45:45;;;;;;;15.43;7.53;;;;;;;2.61;100.00;99479.78;10416035;28;20041;-55
2021/11/23 11:50:59;;;;;;;16.70;7.68;;;;;;;2.71;100.00;99483.63;10396287;28;20085;-50
2021/11/23 11:56:02;;;;;;;15.60;7.25;;;;;;;2.78;100.00;99482.34;10408306;28;20061;-55
2021/11/23 12:01:19;;;;;;;16.50;7.55;;;;;;;2.85;100.00;99477.53;10415824;28;20409;-55
2021/11/23 12:06:24;;;;;;;16.00;8.48;;;;;;;2.97;100.00;99476.00;10420346;28;20045;-52
2021/11/23 12:11:31;;;;;;;17.77;8.77;;;;;;;3.13;100.00;99478.63;10405496;28;20049;-52
2021/11/23 12:16:39;;;;;;;18.23;9.52;;;;;;;3.23;100.00;99474.50;10422649;28;20045;-51
2021/11/23 12:21:54;;;;;;;21.85;10.30;;;;;;;3.38;100.00;99479.88;10431416;28;20497;-52
2021/11/23 12:27:07;;;;;;;19.85;10.50;;;;;;;3.48;100.00;99461.53;10425176;28;20044;-52
2021/11/23 12:32:11;;;;;;;19.85;11.07;;;;;;;3.59;100.00;99459.09;10421465;28;20098;-54
2021/11/23 12:37:15;;;;;;;22.52;10.73;;;;;;;3.70;100.00;99461.13;10430692;28;20132;-53
2021/11/23 12:42:22;;;;;;;17.02;10.57;;;;;;;3.79;100.00;99460.56;10426114;28;20218;-52
2021/11/23 12:47:25;;;;;;;19.02;10.77;;;;;;;3.83;100.00;99458.56;10425522;28;20140;-51
2021/11/23 12:52:33;;;;;;;21.00;11.20;;;;;;;3.87;100.00;99462.78;10431774;28;20064;-51
2021/11/23 12:57:36;;;;;;;20.30;10.85;;;;;;;3.92;100.00;99455.38;10426254;28;20085;-56
2021/11/23 13:02:43;;;;;;;19.63;11.50;;;;;;;3.99;100.00;99461.19;10412402;28;20538;-54
2021/11/23 13:07:51;;;;;;;20.00;11.50;;;;;;;3.97;100.00;99458.59;10416337;28;20072;-53
2021/11/23 13:12:59;;;;;;;19.35;11.60;;;;;;;3.98;100.00;99459.47;10405336;28;20042;-53
2021/11/23 13:18:05;;;;;;;24.50;13.35;;;;;;;3.98;100.00;99464.81;10426045;28;20076;-51
2021/11/23 13:23:28;;;;;;;27.05;13.43;;;;;;;3.99;100.00;99464.72;10408437;28;20116;-55
2021/11/23 13:28:35;;;;;;;21.52;12.70;;;;;;;4.00;100.00;99462.88;10403331;28;20056;-56
2021/11/23 13:33:41;;;;;;;30.23;12.52;;;;;;;4.00;100.00;99462.88;10411852;28;20037;-58
2021/11/23 13:38:49;;;;;;;28.17;12.63;;;;;;;4.03;100.00;99468.03;10418479;28;20528;-55
2021/11/23 13:43:57;;;;;;;20.98;10.45;;;;;;;4.03;100.00;99456.53;10400463;28;20136;-55
2021/11/23 13:49:02;;;;;;;20.02;10.50;;;;;;;4.06;100.00;99456.34;10413324;28;20076;-54
2021/11/23 13:54:10;;;;;;;20.15;10.88;;;;;;;4.13;100.00;99452.34;10412951;28;20072;-56
2021/11/23 13:59:17;;;;;;;17.00;9.90;;;;;;;4.18;100.00;99457.38;10412203;28;20053;-57
2021/11/23 14:04:24;;;;;;;14.63;8.77;;;;;;;4.19;100.00;99446.59;10419906;28;20046;-56
2021/11/23 14:09:43;;;;;;;14.88;9.38;;;;;;;4.21;100.00;99447.38;10426624;28;20045;-55
2021/11/23 14:15:22;;;;;;;15.75;9.73;;;;;;;4.21;100.00;99444.72;10419433;28;20124;-55
2021/11/23 14:20:27;;;;;;;16.33;9.40;;;;;;;4.26;100.00;99439.09;10298615;28;20082;-56
2021/11/23 14:25:31;;;;;;;22.25;10.00;;;;;;;4.25;100.00;99435.56;10392597;28;20089;-56
2021/11/23 14:30:40;;;;;;;18.92;10.20;;;;;;;4.24;100.00;99435.66;10422632;28;20403;-57
2021/11/23 14:35:44;;;;;;;15.07;9.63;;;;;;;4.21;100.00;99444.72;10420063;28;20052;-57
2021/11/23 14:40:55;;;;;;;15.15;9.65;;;;;;;4.21;100.00;99431.38;10402077;28;20379;-54
2021/11/23 14:45:58;;;;;;;19.00;10.98;;;;;;;4.20;100.00;99432.31;10427283;28;20083;-56
2021/11/23 14:51:01;;;;;;;20.65;9.85;;;;;;;4.17;100.00;99427.19;10424982;28;20570;-53
2021/11/23 14:56:06;;;;;;;20.15;10.70;;;;;;;4.16;100.00;99430.81;10428100;28;20132;-56
2021/11/23 15:01:09;;;;;;;19.70;9.70;;;;;;;4.11;100.00;99433.78;10399093;28;20095;-56
2021/11/23 15:06:12;;;;;;;16.10;9.73;;;;;;;4.06;100.00;99440.34;10397831;28;20148;-56
2021/11/23 15:11:17;;;;;;;16.35;10.55;;;;;;;4.05;100.00;99430.63;10418420;28;20051;-54
2021/11/23 15:16:21;;;;;;;16.02;10.80;;;;;;;4.01;100.00;99449.47;10408671;28;20549;-52
2021/11/23 15:21:24;;;;;;;17.08;9.45;;;;;;;3.97;100.00;99463.09;10423494;28;20044;-52
2021/11/23 15:26:29;;;;;;;15.32;9.35;;;;;;;3.95;100.00;99462.31;10422475;28;20052;-54
2021/11/23 15:31:32;;;;;;;16.63;9.05;;;;;;;3.96;100.00;99458.72;10426324;28;20037;-54
2021/11/23 15:36:35;;;;;;;15.45;9.00;;;;;;;3.94;100.00;99458.78;10421422;28;20500;-51
2021/11/23 15:41:40;;;;;;;17.40;8.98;;;;;;;3.93;100.00;99462.44;10416879;28;20507;-56
2021/11/23 15:46:44;;;;;;;17.50;9.73;;;;;;;3.92;100.00;99463.38;10418170;28;20497;-56
2021/11/23 15:51:49;;;;;;;14.65;9.25;;;;;;;3.92;100.00;99458.03;10422338;28;20057;-52
2021/11/23 15:56:55;;;;;;;15.00;9.50;;;;;;;3.93;100.00;99451.75;10421759;28;20389;-56
2021/11/23 16:01:58;;;;;;;14.73;9.27;;;;;;;3.94;100.00;99452.59;10408800;28;20056;-58
2021/11/23 16:07:02;;;;;;;12.63;8.98;;;;;;;3.95;100.00;99465.00;10418763;28;20071;-53
2021/11/23 16:12:08;;;;;;;13.90;8.95;;;;;;;3.97;100.00;99457.75;10422916;28;20561;-52
2021/11/23 16:17:12;;;;;;;18.20;9.50;;;;;;;3.98;100.00;99473.66;10402031;28;20096;-53
2021/11/23 16:22:16;;;;;;;18.05;9.35;;;;;;;4.00;100.00;99471.75;10428842;28;20136;-53
2021/11/23 16:27:39;;;;;;;19.77;10.07;;;;;;;4.01;100.00;99465.47;10394098;23;20076;-80
2021/11/23 16:32:42;;;;;;;14.15;9.65;;;;;;;4.03;100.00;99470.69;10365827;28;20046;-81
2021/11/23 16:37:46;;;;;;;16.58;9.40;;;;;;;4.04;100.00;99469.75;10407076;28;20116;-79
2021/11/23 16:42:50;;;;;;;13.90;9.50;;;;;;;4.05;100.00;99478.63;10412485;28;20049;-83
2021/11/23 16:47:54;;;;;;;20.40;10.05;;;;;;;4.04;100.00;99468.91;10387821;28;20060;-83
2021/11/23 16:52:57;;;;;;;16.38;10.45;;;;;;;4.03;100.00;99478.72;10393167;28;20057;-81
2021/11/23 16:58:05;;;;;;;14.57;9.40;;;;;;;4.03;100.00;99476.03;10410749;28;20045;-82
2021/11/23 17:03:34;;;;;;;16.20;9.90;;;;;;;4.02;100.00;99476.97;10395233;28;20062;-81
2021/11/23 17:08:38;;;;;;;18.20;10.60;;;;;;;4.03;100.00;99475.19;10385076;28;20049;-83
2021/11/23 17:13:42;;;;;;;15.55;10.98;;;;;;;4.04;100.00;99468.91;10375610;28;20137;-82
2021/11/23 17:18:46;;;;;;;16.90;10.95;;;;;;;4.03;100.00;99477.88;10391021;28;20430;-81
2021/11/23 17:23:49;;;;;;;14.35;10.77;;;;;;;4.04;100.00;99474.25;10377104;28;20145;-82
2021/11/23 17:28:53;;;;;;;16.90;10.15;;;;;;;4.03;100.00;99488.53;10386971;28;20056;-80
2021/11/23 17:33:57;;;;;;;16.55;10.35;;;;;;;4.01;100.00;99480.59;10385823;28;20045;-81
2021/11/23 17:39:01;;;;;;;11.95;9.25;;;;;;;4.00;100.00;99479.75;10421172;28;20163;-81
2021/11/23 17:44:05;;;;;;;16.30;11.10;;;;;;;3.99;100.00;99474.53;10413899;28;20042;-80
2021/11/23 17:49:10;;;;;;;14.32;10.38;;;;;;;4.00;100.00;99482.41;10391224;28;20045;-82
2021/11/23 17:54:13;;;;;;;15.10;10.77;;;;;;;3.97;100.00;99485.28;10384296;28;20050;-84
2021/11/23 17:59:18;;;;;;;13.10;10.63;;;;;;;3.97;100.00;99477.28;10394301;28;20054;-81
2021/11/23 18:04:23;;;;;;;13.73;10.32;;;;;;;3.97;100.00;99481.75;10395522;28;20049;-83
2021/11/23 18:09:26;;;;;;;17.88;12.18;;;;;;;3.95;100.00;99476.50;10377909;28;20156;-84
2021/11/23 18:14:31;;;;;;;20.20;13.90;;;;;;;3.93;100.00;99478.44;10401034;28;20045;-83
2021/11/23 18:19:36;;;;;;;18.20;12.88;;;;;;;3.92;100.00;99466.03;10390250;28;20049;-83
2021/11/23 18:24:43;;;;;;;22.83;14.07;;;;;;;3.91;100.00;99468.78;10422009;28;20106;-82
2021/11/23 18:29:47;;;;;;;22.88;15.50;;;;;;;3.89;100.00;99465.34;10373808;28;20053;-80
2021/11/23 18:34:50;;;;;;;19.77;14.95;;;;;;;3.90;100.00;99462.59;10380081;28;20139;-82
2021/11/23 18:39:54;;;;;;;24.42;16.02;;;;;;;3.89;100.00;99466.22;10375097;28;20053;-81
2021/11/23 18:45:00;;;;;;;20.42;16.20;;;;;;;3.86;100.00;99466.41;10394978;28;20052;-80
2021/11/23 18:50:04;;;;;;;21.88;15.43;;;;;;;3.85;100.00;99470.00;10365826;28;20077;-81
2021/11/23 18:55:11;;;;;;;26.40;17.35;;;;;;;3.82;100.00;99460.41;10381735;28;20585;-81
2021/11/23 19:00:19;;;;;;;27.58;19.25;;;;;;;3.81;100.00;99468.50;10382735;28;20117;-82
2021/11/23 19:05:26;;;;;;;;;;;;;;;3.76;100.00;99470.56;10372546;28;20115;-82
2021/11/23 19:10:30;;;;;;;34.33;21.48;;;;;;;3.77;100.00;99477.63;10379581;28;20021;-80
2021/11/23 19:15:34;;;;;;;34.63;22.83;;;;;;;3.78;100.00;99484.66;10375574;28;20073;-79
2021/11/23 19:20:37;;;;;;;35.22;23.90;;;;;;;3.75;100.00;99488.38;10391437;28;20119;-80
2021/11/23 19:25:40;;;;;;;39.88;25.52;;;;;;;3.75;100.00;99476.84;10381686;28;20072;-79
2021/11/23 19:30:45;;;;;;;34.97;24.23;;;;;;;3.74;100.00;99477.78;10374395;28;20473;-79
2021/11/23 19:35:49;;;;;;;35.85;26.00;;;;;;;3.73;100.00;99470.75;10383316;28;20045;-80
2021/11/23 19:40:52;;;;;;;43.05;27.38;;;;;;;3.73;100.00;99473.41;10389775;28;20172;-80
2021/11/23 19:45:57;;;;;;;43.80;26.83;;;;;;;3.72;100.00;99463.69;10400405;28;20397;-80
2021/11/23 19:51:01;;;;;;;42.45;26.48;;;;;;;3.72;100.00;99461.03;10380803;28;20049;-79
2021/11/23 19:56:05;;;;;;;38.38;25.13;;;;;;;3.71;100.00;99468.19;10374026;28;20382;-80
2021/11/23 20:01:09;;;;;;;37.80;24.48;;;;;;;3.70;100.00;99467.31;10382254;28;20046;-80
2021/11/23 20:06:13;;;;;;;41.20;26.80;;;;;;;3.69;100.00;99470.94;10398769;28;20045;-80
2021/11/23 20:11:16;;;;;;;39.10;27.40;;;;;;;3.70;100.00;99469.97;10381834;28;20506;-81
2021/11/23 20:16:21;;;;;;;36.38;24.83;;;;;;;3.72;100.00;99463.69;10396786;28;20061;-81
2021/11/23 20:21:24;;;;;;;38.67;25.02;;;;;;;3.74;100.00;99461.81;10378201;28;20405;-81
2021/11/23 20:26:28;;;;;;;39.65;25.77;;;;;;;3.75;100.00;99468.84;10383593;28;20490;-82
2021/11/23 20:31:33;;;;;;;42.55;27.10;;;;;;;3.75;100.00;99463.53;10386243;28;20069;-81
2021/11/23 20:36:39;;;;;;;45.58;28.70;;;;;;;3.73;100.00;99463.63;10387924;28;20129;-82
2021/11/23 20:41:43;;;;;;;42.08;29.27;;;;;;;3.77;100.00;99461.63;10383988;28;20045;-81
2021/11/23 20:46:53;;;;;;;41.00;27.75;;;;;;;3.76;100.00;99459.91;10410964;28;20064;-80
2021/11/23 20:51:57;;;;;;;40.90;28.15;;;;;;;3.76;100.00;99454.56;10412459;28;20057;-80
2021/11/23 20:57:00;;;;;;;36.90;26.60;;;;;;;3.78;100.00;99460.69;10398432;28;20041;-81
2021/11/23 21:02:05;;;;;;;37.35;25.15;;;;;;;3.78;100.00;99458.00;10394596;28;20049;-81
2021/11/23 21:07:21;;;;;;;39.45;25.85;;;;;;;3.80;100.00;99456.13;10430821;28;20034;-80
2021/11/23 21:12:24;;;;;;;36.55;24.58;;;;;;;3.81;100.00;99457.84;10428472;28;20054;-82
2021/11/23 21:17:29;;;;;;;34.45;24.13;;;;;;;3.80;100.00;99456.13;10377790;28;20739;-80
2021/11/23 21:22:32;;;;;;;35.47;23.27;;;;;;;3.77;100.00;99453.63;10374791;28;20045;-82
2021/11/23 21:27:36;;;;;;;34.53;22.45;;;;;;;3.79;100.00;99449.91;10370074;28;20080;-81
2021/11/23 21:32:42;;;;;;;36.28;22.38;;;;;;;3.79;100.00;99443.75;10386427;28;20073;-83
2021/11/23 21:37:51;;;;;;;34.20;22.52;;;;;;;3.75;100.00;99434.19;10392688;28;20108;-82
2021/11/23 21:48:19;;;;;;;33.83;22.13;;;;;;;3.76;100.00;99427.94;10372784;28;20537;-82
2021/11/23 21:53:22;;;;;;;34.17;22.70;;;;;;;3.72;100.00;99424.59;10396095;28;20045;-83
2021/11/23 21:58:26;;;;;;;37.53;22.42;;;;;;;3.72;100.00;99426.38;10370886;28;20068;-81
2021/11/23 22:03:31;;;;;;;34.78;22.98;;;;;;;3.73;100.00;99434.31;10374705;28;20057;-84
2021/11/23 22:08:35;;;;;;;37.92;24.65;;;;;;;3.70;100.00;99439.81;10381449;28;20054;-83
2021/11/23 22:13:41;;;;;;;36.17;23.50;;;;;;;3.68;100.00;99431.06;10380719;28;20695;-83
2021/11/23 22:18:46;;;;;;;36.65;24.25;;;;;;;3.67;100.00;99429.31;10383465;28;20088;-83
2021/11/23 22:23:50;;;;;;;38.00;23.88;;;;;;;3.70;100.00;99435.31;10374704;28;20050;-82
2021/11/23 22:28:53;;;;;;;35.58;23.90;;;;;;;3.70;100.00;99430.00;10382991;28;20046;-83
2021/11/23 22:34:00;;;;;;;38.08;24.45;;;;;;;3.70;100.00;99424.66;10384032;28;20042;-83
2021/11/23 22:39:03;;;;;;;38.35;24.08;;;;;;;3.71;100.00;99428.22;10374030;28;20070;-84
2021/11/23 22:44:06;;;;;;;39.55;24.08;;;;;;;3.73;100.00;99420.97;10395833;28;20053;-84
2021/11/23 22:49:12;;;;;;;40.28;25.20;;;;;;;3.76;100.00;99418.13;10374885;28;20069;-84
2021/11/23 22:54:15;;;;;;;37.85;24.77;;;;;;;3.77;100.00;99421.66;10371877;28;20193;-84
2021/11/23 22:59:18;;;;;;;42.45;25.15;;;;;;;3.76;100.00;99417.25;10367623;28;20566;-83
2021/11/23 23:04:23;;;;;;;41.30;24.77;;;;;;;3.74;100.00;99409.38;10376042;28;20103;-85
2021/11/23 23:09:27;;;;;;;41.53;25.40;;;;;;;3.71;100.00;99404.22;10367566;28;20050;-83
2021/11/23 23:14:32;;;;;;;43.33;25.70;;;;;;;3.73;100.00;99412.09;10373250;28;20403;-82